createdAt,value
2023-02-09T00:00:13.891Z,68.03
2023-02-09T00:02:44.118Z,68.17
2023-02-09T00:05:12.807Z,68.36
2023-02-09T00:07:41.207Z,68.87
2023-02-09T00:10:10.395Z,69.22
2023-02-09T00:12:56.244Z,69.66
2023-02-09T00:15:25.067Z,68.30
2023-02-09T00:17:54.790Z,66.94
2023-02-09T00:20:23.238Z,65.94
2023-02-09T00:22:51.654Z,65.22
2023-02-09T00:25:20.212Z,64.72
2023-02-09T00:27:48.853Z,64.22
2023-02-09T00:30:17.300Z,64.02
2023-02-09T00:32:45.863Z,64.18
2023-02-09T00:35:15.711Z,64.74
2023-02-09T00:37:44.142Z,65.19
2023-02-09T00:40:13.245Z,65.19
2023-02-09T00:42:41.669Z,66.37
2023-02-09T00:45:10.716Z,65.94
2023-02-09T00:47:39.188Z,65.52
2023-02-09T00:50:08.478Z,65.34
2023-02-09T00:52:38.404Z,64.73
2023-02-09T00:55:07.421Z,64.85
2023-02-09T00:57:36.109Z,65.67
2023-02-09T01:00:05.068Z,65.00
2023-02-09T01:02:33.497Z,64.06
2023-02-09T01:05:02.284Z,64.02
2023-02-09T01:07:30.746Z,63.51
2023-02-09T01:10:02.909Z,64.15
2023-02-09T01:12:32.542Z,64.71
2023-02-09T01:15:01.848Z,65.23
2023-02-09T01:17:30.321Z,65.71
2023-02-09T01:19:58.752Z,66.07
2023-02-09T01:22:27.314Z,66.51
2023-02-09T01:24:56.172Z,66.52
2023-02-09T01:27:25.964Z,67.50
2023-02-09T01:29:54.730Z,67.21
2023-02-09T01:32:23.117Z,67.38
2023-02-09T01:34:51.840Z,67.93
2023-02-09T01:37:20.660Z,67.74
2023-02-09T01:39:49.263Z,68.06
2023-02-09T01:42:20.609Z,67.82
2023-02-09T01:45:08.673Z,68.23
2023-02-09T01:47:43.261Z,68.63
2023-02-09T01:50:12.752Z,69.34
2023-02-09T01:52:42.017Z,69.87
2023-02-09T01:55:13.885Z,70.43
2023-02-09T01:57:46.731Z,71.18
2023-02-09T02:00:19.058Z,72.21
2023-02-09T02:02:50.722Z,72.43
2023-02-09T02:05:20.754Z,72.49
2023-02-09T02:07:55.481Z,72.85
2023-02-09T02:10:24.746Z,73.05
2023-02-09T02:12:55.000Z,73.07
2023-02-09T02:15:28.399Z,73.34
2023-02-09T02:18:14.280Z,73.46
2023-02-09T02:21:05.850Z,73.76
2023-02-09T02:23:44.364Z,73.73
2023-02-09T02:26:45.001Z,73.79
2023-02-09T02:29:48.566Z,73.81
2023-02-09T02:32:25.544Z,73.54
2023-02-09T02:35:00.304Z,73.50
2023-02-09T02:37:50.540Z,72.78
2023-02-09T02:40:29.176Z,72.37
2023-02-09T02:43:01.321Z,71.84
2023-02-09T02:45:41.177Z,71.57
2023-02-09T02:48:31.014Z,71.33
2023-02-09T02:51:03.909Z,71.81
2023-02-09T02:53:36.364Z,71.98
2023-02-09T02:56:10.606Z,71.90
2023-02-09T02:58:41.803Z,72.31
2023-02-09T03:01:15.501Z,71.84
2023-02-09T03:03:47.392Z,71.88
2023-02-09T03:06:17.053Z,71.65
2023-02-09T03:08:51.085Z,70.84
2023-02-09T03:11:21.526Z,70.50
2023-02-09T03:14:06.014Z,70.09
2023-02-09T03:16:41.198Z,70.36
2023-02-09T03:19:22.925Z,70.15
2023-02-09T03:21:57.921Z,69.64
2023-02-09T03:24:41.034Z,69.78
2023-02-09T03:27:16.411Z,69.55
2023-02-09T03:29:47.240Z,70.12
2023-02-09T03:32:17.029Z,69.95
2023-02-09T03:34:47.303Z,69.92
2023-02-09T03:37:16.023Z,69.12
2023-02-09T03:39:44.506Z,68.39
2023-02-09T03:42:13.080Z,68.30
2023-02-09T03:44:41.577Z,68.83
2023-02-09T03:47:11.044Z,68.27
2023-02-09T03:49:42.146Z,68.75
2023-02-09T03:52:14.204Z,68.04
2023-02-09T03:54:43.275Z,68.90
2023-02-09T03:57:12.061Z,69.20
2023-02-09T03:59:40.532Z,68.73
2023-02-09T04:02:10.581Z,68.76
2023-02-09T04:04:39.068Z,68.96
2023-02-09T04:07:07.689Z,68.81
2023-02-09T04:09:38.253Z,69.10
2023-02-09T04:12:07.472Z,68.96
2023-02-09T04:14:35.917Z,68.64
2023-02-09T04:17:04.316Z,68.46
2023-02-09T04:19:33.048Z,68.67
2023-02-09T04:22:01.945Z,68.38
2023-02-09T04:24:30.485Z,68.16
2023-02-09T04:27:00.360Z,67.46
2023-02-09T04:29:28.910Z,67.17
2023-02-09T04:31:57.426Z,67.11
2023-02-09T04:34:25.947Z,67.64
2023-02-09T04:36:54.450Z,68.36
2023-02-09T04:39:22.954Z,68.42
2023-02-09T04:41:51.398Z,68.69
2023-02-09T04:44:21.147Z,68.40
2023-02-09T04:46:49.492Z,67.79
2023-02-09T04:49:18.107Z,67.83
2023-02-09T04:51:46.444Z,67.64
2023-02-09T04:54:14.887Z,67.61
2023-02-09T04:56:43.280Z,68.02
2023-02-09T04:59:25.698Z,67.68
2023-02-09T05:01:55.630Z,67.26
2023-02-09T05:04:24.037Z,67.44
2023-02-09T05:06:52.437Z,67.67
2023-02-09T05:09:20.834Z,68.61
2023-02-09T05:11:49.154Z,68.71
2023-02-09T05:14:17.669Z,69.14
2023-02-09T05:16:46.085Z,70.05
2023-02-09T05:19:15.819Z,69.42
2023-02-09T05:21:44.300Z,69.09
2023-02-09T05:24:15.673Z,68.84
2023-02-09T05:26:44.034Z,68.82
2023-02-09T05:29:12.459Z,68.24
2023-02-09T05:31:40.947Z,68.54
2023-02-09T05:34:09.766Z,67.58
2023-02-09T05:36:39.696Z,67.59
2023-02-09T05:39:08.382Z,68.13
2023-02-09T05:41:54.211Z,68.54
2023-02-09T05:44:22.809Z,68.94
2023-02-09T05:46:51.197Z,68.98
2023-02-09T05:49:19.818Z,69.36
2023-02-09T05:51:49.948Z,69.57
2023-02-09T05:54:18.936Z,69.61
2023-02-09T05:56:47.887Z,69.79
2023-02-09T05:59:16.322Z,70.46
2023-02-09T06:01:44.952Z,70.62
2023-02-09T06:04:13.692Z,70.01
2023-02-09T06:06:42.112Z,69.55
2023-02-09T06:09:13.447Z,70.44
2023-02-09T06:11:42.182Z,70.62
2023-02-09T06:14:11.022Z,71.77
2023-02-09T06:16:40.701Z,72.17
2023-02-09T06:19:12.714Z,73.03
2023-02-09T06:21:41.365Z,73.63
2023-02-09T06:24:09.813Z,73.29
2023-02-09T06:26:40.892Z,73.04
2023-02-09T06:29:09.770Z,73.09
2023-02-09T06:31:38.727Z,73.11
2023-02-09T06:34:07.256Z,73.41
2023-02-09T06:36:35.663Z,73.51
2023-02-09T06:39:08.121Z,73.77
2023-02-09T06:41:37.375Z,73.24
2023-02-09T06:44:07.290Z,73.24
2023-02-09T06:46:35.929Z,73.78
2023-02-09T06:49:04.968Z,73.86
2023-02-09T06:51:33.421Z,74.12
2023-02-09T06:54:02.072Z,73.81
2023-02-09T06:56:30.463Z,74.26
2023-02-09T06:58:58.835Z,74.35
2023-02-09T07:01:28.709Z,74.53
2023-02-09T07:03:57.171Z,74.74
2023-02-09T07:06:26.080Z,74.41
2023-02-09T07:08:54.537Z,74.84
2023-02-09T07:11:22.915Z,74.29
2023-02-09T07:13:51.258Z,73.86
2023-02-09T07:16:19.935Z,73.99
2023-02-09T07:18:50.143Z,72.97
2023-02-09T07:21:23.529Z,71.21
2023-02-09T07:23:53.209Z,69.23
2023-02-09T07:26:21.525Z,63.70
2023-02-09T07:28:50.070Z,58.20
2023-02-09T07:31:18.783Z,54.52
2023-02-09T07:33:47.798Z,51.35
2023-02-09T07:36:17.836Z,50.52
2023-02-09T07:38:46.702Z,47.86
2023-02-09T07:41:18.800Z,44.01
2023-02-09T07:43:48.971Z,42.53
2023-02-09T07:46:19.698Z,42.61
2023-02-09T07:48:49.296Z,42.96
2023-02-09T07:51:20.846Z,40.88
2023-02-09T07:53:49.382Z,38.97
2023-02-09T07:56:18.153Z,38.56
2023-02-09T07:58:46.685Z,38.56
2023-02-09T08:01:15.245Z,37.69
2023-02-09T08:03:48.870Z,37.23
2023-02-09T08:06:30.370Z,36.51
2023-02-09T08:09:06.186Z,34.89
2023-02-09T08:11:40.502Z,34.35
2023-02-09T08:14:14.638Z,34.73
2023-02-09T08:16:43.577Z,35.15
2023-02-09T08:19:16.569Z,36.39
2023-02-09T08:21:49.508Z,39.40
2023-02-09T08:24:21.361Z,40.88
2023-02-09T08:26:50.300Z,40.20
2023-02-09T08:29:19.887Z,40.71
2023-02-09T08:31:48.292Z,39.65
2023-02-09T08:34:16.678Z,38.32
2023-02-09T08:36:45.419Z,36.29
2023-02-09T08:39:15.206Z,35.80
2023-02-09T08:41:46.380Z,35.52
2023-02-09T08:44:15.157Z,36.17
2023-02-09T08:46:43.687Z,35.97
2023-02-09T08:49:13.028Z,37.09
2023-02-09T08:51:41.381Z,38.40
2023-02-09T08:54:09.969Z,35.67
2023-02-09T08:56:39.907Z,36.80
2023-02-09T08:59:08.291Z,36.09
2023-02-09T09:01:36.689Z,34.00
2023-02-09T09:04:05.220Z,33.31
2023-02-09T09:06:35.005Z,33.58
2023-02-09T09:09:03.430Z,33.57
2023-02-09T09:11:32.901Z,33.20
2023-02-09T09:14:02.691Z,33.11
2023-02-09T09:16:31.170Z,33.01
2023-02-09T09:18:59.987Z,33.56
2023-02-09T09:21:28.486Z,33.56
2023-02-09T09:23:56.821Z,32.47
2023-02-09T09:26:25.246Z,33.13
2023-02-09T09:28:53.609Z,32.42
2023-02-09T09:31:24.181Z,34.83
2023-02-09T09:33:52.739Z,33.18
2023-02-09T09:36:21.194Z,31.09
2023-02-09T09:38:49.721Z,32.58
2023-02-09T09:41:22.197Z,31.70
2023-02-09T09:43:51.857Z,30.44
2023-02-09T09:46:25.161Z,32.12
2023-02-09T09:48:57.176Z,31.96
2023-02-09T09:51:39.153Z,30.71
2023-02-09T09:54:14.011Z,30.60
2023-02-09T09:56:42.847Z,32.31
2023-02-09T09:59:17.623Z,31.56
2023-02-09T10:01:48.672Z,32.30
2023-02-09T10:04:17.424Z,32.80
2023-02-09T10:06:47.736Z,33.14
2023-02-09T10:09:27.557Z,31.87
2023-02-09T10:12:05.261Z,32.11
2023-02-09T10:14:33.977Z,30.85
2023-02-09T10:17:03.803Z,30.48
2023-02-09T10:19:32.764Z,31.32
2023-02-09T10:22:01.272Z,31.06
2023-02-09T10:24:31.736Z,31.96
2023-02-09T10:27:07.778Z,31.47
2023-02-09T10:29:36.732Z,29.57
2023-02-09T10:32:15.449Z,30.03
2023-02-09T10:34:47.362Z,29.60
2023-02-09T10:37:21.117Z,27.86
2023-02-09T10:39:57.056Z,27.69
2023-02-09T10:42:30.537Z,26.17
2023-02-09T10:45:07.187Z,27.16
2023-02-09T10:47:37.143Z,26.74
2023-02-09T10:50:18.158Z,27.14
2023-02-09T10:52:57.598Z,26.08
2023-02-09T10:55:33.804Z,27.46
2023-02-09T10:58:11.989Z,29.98
2023-02-09T11:00:49.356Z,31.69
2023-02-09T11:03:21.694Z,30.95
2023-02-09T11:05:59.827Z,27.08
2023-02-09T11:08:46.012Z,25.36
2023-02-09T11:11:26.933Z,26.97
2023-02-09T11:13:55.970Z,25.30
2023-02-09T11:16:45.398Z,24.01
2023-02-09T11:19:28.365Z,24.46
2023-02-09T11:22:12.857Z,23.55
2023-02-09T11:24:57.332Z,22.82
2023-02-09T11:27:58.538Z,23.30
2023-02-09T11:30:41.564Z,25.26
2023-02-09T11:33:17.538Z,24.91
2023-02-09T11:35:56.055Z,24.48
2023-02-09T11:38:36.412Z,24.39
2023-02-09T11:41:31.378Z,23.95
2023-02-09T11:44:03.272Z,21.80
2023-02-09T11:46:35.446Z,22.35
2023-02-09T11:49:12.901Z,22.91
2023-02-09T11:51:47.991Z,24.07
2023-02-09T11:54:21.654Z,25.29
2023-02-09T11:56:53.360Z,25.80
2023-02-09T11:59:28.513Z,25.73
2023-02-09T12:02:05.430Z,24.86
2023-02-09T12:04:44.641Z,22.48
2023-02-09T12:07:21.782Z,22.00
2023-02-09T12:09:55.808Z,22.65
2023-02-09T12:12:31.140Z,24.53
2023-02-09T12:15:14.345Z,25.33
2023-02-09T12:17:49.157Z,25.22
2023-02-09T12:20:30.149Z,25.36
2023-02-09T12:23:07.868Z,25.25
2023-02-09T12:25:52.017Z,27.07
2023-02-09T12:28:40.117Z,27.66
2023-02-09T12:31:13.248Z,26.01
2023-02-09T12:34:12.423Z,24.34
2023-02-09T12:37:03.464Z,23.65
2023-02-09T12:39:34.960Z,24.67
2023-02-09T12:42:29.135Z,25.21
2023-02-09T12:45:00.548Z,27.18
2023-02-09T12:47:58.417Z,27.83
2023-02-09T12:50:52.443Z,26.22
2023-02-09T12:53:41.801Z,23.54
2023-02-09T12:56:34.577Z,26.00
2023-02-09T12:59:23.680Z,25.69
2023-02-09T13:02:25.933Z,24.08
2023-02-09T13:05:04.197Z,24.04
2023-02-09T13:07:44.427Z,25.43
2023-02-09T13:10:24.379Z,26.23
2023-02-09T13:12:59.849Z,28.84
2023-02-09T13:15:45.243Z,30.55
2023-02-09T13:18:21.135Z,30.51
2023-02-09T13:21:13.029Z,29.87
2023-02-09T13:23:56.063Z,28.83
2023-02-09T13:26:27.484Z,28.19
2023-02-09T13:29:20.982Z,29.52
2023-02-09T13:32:06.017Z,31.28
2023-02-09T13:34:39.293Z,31.87
2023-02-09T13:37:21.953Z,33.19
2023-02-09T13:39:57.357Z,32.88
2023-02-09T13:42:28.566Z,32.47
2023-02-09T13:45:00.219Z,31.61
2023-02-09T13:47:30.209Z,30.89
2023-02-09T13:50:00.878Z,28.88
2023-02-09T13:52:36.300Z,28.27
2023-02-09T13:55:13.111Z,28.15
2023-02-09T13:57:44.422Z,28.88
2023-02-09T14:00:24.671Z,30.56
2023-02-09T14:02:56.512Z,31.61
2023-02-09T14:05:35.124Z,31.94
2023-02-09T14:08:04.857Z,32.23
2023-02-09T14:10:35.313Z,32.84
2023-02-09T14:13:07.604Z,32.71
2023-02-09T14:15:57.661Z,34.17
2023-02-09T14:18:32.718Z,35.82
2023-02-09T14:21:05.317Z,36.46
2023-02-09T14:23:35.086Z,37.33
2023-02-09T14:26:05.684Z,38.22
2023-02-09T14:28:35.726Z,38.27
2023-02-09T14:31:08.300Z,38.89
2023-02-09T14:33:38.437Z,38.55
2023-02-09T14:36:07.623Z,38.78
2023-02-09T14:38:38.660Z,38.77
2023-02-09T14:41:28.137Z,39.13
2023-02-09T14:44:00.820Z,39.58
2023-02-09T14:46:47.778Z,39.63
2023-02-09T14:49:16.970Z,39.50
2023-02-09T14:51:45.843Z,39.34
2023-02-09T14:54:24.056Z,38.65
2023-02-09T14:56:54.176Z,39.54
2023-02-09T14:59:23.883Z,39.80
2023-02-09T15:01:57.390Z,40.82
2023-02-09T15:04:26.501Z,40.80
2023-02-09T15:07:02.951Z,41.58
2023-02-09T15:09:36.654Z,41.57
2023-02-09T15:12:06.718Z,41.99
2023-02-09T15:14:42.686Z,42.51
2023-02-09T15:17:16.985Z,42.29
2023-02-09T15:19:46.341Z,43.97
2023-02-09T15:22:17.130Z,42.77
2023-02-09T15:24:48.382Z,43.47
2023-02-09T15:27:25.000Z,43.16
2023-02-09T15:29:53.794Z,43.68
2023-02-09T15:32:25.008Z,43.65
2023-02-09T15:34:54.174Z,43.69
2023-02-09T15:37:25.310Z,44.21
2023-02-09T15:39:57.155Z,44.50
2023-02-09T15:42:43.244Z,44.68
2023-02-09T15:45:33.884Z,45.03
2023-02-09T15:48:04.973Z,45.32
2023-02-09T15:50:35.066Z,45.30
2023-02-09T15:53:05.522Z,45.83
2023-02-09T15:55:35.378Z,45.81
2023-02-09T15:58:05.196Z,46.09
2023-02-09T16:00:33.640Z,46.82
2023-02-09T16:03:14.799Z,47.62
2023-02-09T16:05:43.975Z,47.08
2023-02-09T16:08:19.100Z,47.29
2023-02-09T16:10:48.927Z,47.48
2023-02-09T16:13:19.450Z,48.54
2023-02-09T16:15:48.566Z,48.75
2023-02-09T16:18:18.726Z,49.21
2023-02-09T16:20:50.766Z,48.81
2023-02-09T16:23:23.004Z,49.21
2023-02-09T16:25:53.293Z,49.65
2023-02-09T16:28:22.894Z,49.92
2023-02-09T16:30:54.164Z,50.43
2023-02-09T16:33:25.988Z,51.51
2023-02-09T16:36:03.952Z,51.57
2023-02-09T16:38:32.673Z,51.16
2023-02-09T16:41:01.086Z,50.88
2023-02-09T16:43:29.597Z,50.67
2023-02-09T16:46:03.823Z,50.60
2023-02-09T16:48:35.412Z,50.60
2023-02-09T16:51:03.908Z,50.71
2023-02-09T16:53:36.065Z,50.98
2023-02-09T16:56:10.095Z,50.72
2023-02-09T16:58:39.520Z,51.27
2023-02-09T17:01:13.977Z,51.14
2023-02-09T17:03:46.781Z,51.72
2023-02-09T17:06:21.277Z,51.41
2023-02-09T17:08:50.021Z,51.61
2023-02-09T17:11:20.508Z,51.73
2023-02-09T17:13:49.425Z,52.04
2023-02-09T17:16:20.785Z,51.95
2023-02-09T17:18:53.311Z,52.30
2023-02-09T17:21:24.619Z,52.30
2023-02-09T17:23:53.785Z,51.95
2023-02-09T17:26:22.345Z,52.49
2023-02-09T17:28:51.318Z,52.30
2023-02-09T17:31:23.254Z,52.66
2023-02-09T17:33:54.928Z,52.60
2023-02-09T17:36:27.464Z,53.02
2023-02-09T17:38:58.548Z,52.48
2023-02-09T17:41:32.354Z,52.18
2023-02-09T17:44:22.320Z,51.79
2023-02-09T17:46:55.405Z,51.51
2023-02-09T17:49:25.362Z,52.36
2023-02-09T17:51:54.046Z,51.83
2023-02-09T17:54:22.494Z,51.99
2023-02-09T17:56:51.037Z,51.86
2023-02-09T17:59:21.192Z,51.97
2023-02-09T18:01:50.670Z,52.27
2023-02-09T18:04:22.181Z,52.05
2023-02-09T18:06:53.187Z,52.01
2023-02-09T18:09:24.900Z,52.41
2023-02-09T18:11:59.712Z,51.91
2023-02-09T18:14:29.503Z,51.92
2023-02-09T18:16:58.421Z,52.08
2023-02-09T18:19:27.151Z,51.91
2023-02-09T18:21:58.783Z,52.03
2023-02-09T18:24:30.645Z,52.15
2023-02-09T18:26:59.679Z,51.95
2023-02-09T18:29:30.252Z,51.73
2023-02-09T18:31:59.600Z,52.00
2023-02-09T18:34:29.126Z,52.30
2023-02-09T18:36:58.947Z,52.32
2023-02-09T18:39:27.638Z,52.45
2023-02-09T18:41:55.972Z,52.26
2023-02-09T18:44:29.174Z,52.86
2023-02-09T18:47:00.291Z,52.89
2023-02-09T18:49:29.524Z,53.21
2023-02-09T18:51:59.401Z,53.18
2023-02-09T18:54:29.152Z,53.35
2023-02-09T18:56:58.030Z,53.01
2023-02-09T18:59:29.400Z,53.19
2023-02-09T19:01:58.514Z,53.78
2023-02-09T19:04:27.852Z,53.30
2023-02-09T19:06:56.829Z,53.82
2023-02-09T19:09:27.022Z,53.88
2023-02-09T19:11:55.741Z,54.07
2023-02-09T19:14:41.669Z,54.27
2023-02-09T19:17:17.180Z,54.60
2023-02-09T19:19:50.129Z,55.03
2023-02-09T19:22:21.887Z,54.79
2023-02-09T19:24:55.570Z,54.87
2023-02-09T19:27:26.777Z,55.39
2023-02-09T19:29:57.193Z,56.00
2023-02-09T19:32:27.277Z,56.53
2023-02-09T19:34:56.393Z,56.84
2023-02-09T19:37:25.412Z,57.16
2023-02-09T19:40:04.254Z,57.22
2023-02-09T19:42:33.961Z,58.23
2023-02-09T19:45:09.645Z,58.39
2023-02-09T19:47:39.453Z,59.23
2023-02-09T19:50:08.211Z,59.57
2023-02-09T19:52:38.470Z,59.62
2023-02-09T19:55:10.965Z,60.09
2023-02-09T19:57:41.502Z,59.98
2023-02-09T20:00:15.707Z,60.14
2023-02-09T20:02:45.421Z,60.45
2023-02-09T20:05:14.713Z,60.33
2023-02-09T20:07:48.799Z,61.09
2023-02-09T20:10:19.544Z,61.18
2023-02-09T20:12:48.355Z,60.80
2023-02-09T20:15:17.520Z,60.90
2023-02-09T20:20:15.913Z,60.87
2023-02-09T20:22:44.588Z,61.11
2023-02-09T20:25:14.326Z,61.57
2023-02-09T20:27:45.540Z,61.71
2023-02-09T20:30:16.212Z,62.23
2023-02-09T20:32:46.257Z,62.21
2023-02-09T20:35:15.585Z,62.63
2023-02-09T20:37:44.756Z,63.11
2023-02-09T20:40:13.769Z,62.97
2023-02-09T20:43:01.231Z,63.19
2023-02-09T20:45:47.593Z,63.49
2023-02-09T20:48:17.379Z,63.71
2023-02-09T20:50:46.458Z,64.41
2023-02-09T20:53:15.095Z,64.60
2023-02-09T20:55:43.949Z,65.06
2023-02-09T20:58:14.503Z,64.94
2023-02-09T21:00:44.329Z,65.09
2023-02-09T21:03:13.200Z,65.04
2023-02-09T21:05:42.270Z,65.42
2023-02-09T21:08:11.489Z,65.44
2023-02-09T21:10:40.389Z,66.11
2023-02-09T21:13:10.846Z,66.36
2023-02-09T21:15:43.953Z,66.32
2023-02-09T21:18:13.307Z,66.48
2023-02-09T21:20:42.398Z,66.22
2023-02-09T21:23:11.344Z,66.42
2023-02-09T21:25:39.833Z,66.84
2023-02-09T21:28:08.418Z,66.97
2023-02-09T21:30:37.629Z,67.34
2023-02-09T21:33:07.943Z,67.36
2023-02-09T21:35:40.702Z,67.60
2023-02-09T21:38:09.514Z,67.38
2023-02-09T21:40:38.789Z,67.78
2023-02-09T21:43:07.451Z,67.83
2023-02-09T21:45:39.000Z,67.92
2023-02-09T21:48:09.260Z,68.02
2023-02-09T21:50:37.635Z,68.10
2023-02-09T21:53:06.112Z,68.57
2023-02-09T21:55:34.940Z,68.62
2023-02-09T21:58:03.366Z,68.65
2023-02-09T22:00:32.296Z,68.64
2023-02-09T22:03:01.399Z,68.67
2023-02-09T22:05:31.157Z,68.88
2023-02-09T22:07:59.505Z,69.28
2023-02-09T22:10:28.616Z,69.09
2023-02-09T22:12:57.190Z,69.53
2023-02-09T22:15:25.576Z,69.83
2023-02-09T22:17:53.916Z,69.98
2023-02-09T22:20:22.405Z,69.64
2023-02-09T22:22:52.092Z,70.28
2023-02-09T22:25:22.568Z,70.14
2023-02-09T22:27:50.941Z,69.94
2023-02-09T22:30:19.393Z,70.48
2023-02-09T22:32:47.800Z,70.50
2023-02-09T22:35:16.508Z,70.71
2023-02-09T22:37:45.050Z,70.49
2023-02-09T22:40:14.773Z,70.47
2023-02-09T22:42:43.187Z,70.27
2023-02-09T22:45:11.649Z,70.72
2023-02-09T22:47:40.144Z,71.31
2023-02-09T22:50:09.242Z,70.94
2023-02-09T22:52:37.652Z,71.72
2023-02-09T22:55:06.689Z,71.49
2023-02-09T22:57:36.555Z,71.57
2023-02-09T23:00:07.480Z,71.81
2023-02-09T23:02:36.080Z,71.79
2023-02-09T23:05:04.847Z,71.67
2023-02-09T23:07:33.344Z,72.22
2023-02-09T23:10:01.715Z,72.14
2023-02-09T23:12:30.070Z,71.88
2023-02-09T23:14:59.864Z,72.25
2023-02-09T23:17:28.437Z,72.24
2023-02-09T23:19:56.864Z,72.07
2023-02-09T23:22:25.229Z,72.43
2023-02-09T23:24:55.033Z,72.52
2023-02-09T23:27:23.425Z,72.66
2023-02-09T23:29:51.913Z,72.67
2023-02-09T23:32:21.673Z,72.90
2023-02-09T23:34:50.079Z,72.99
2023-02-09T23:37:28.722Z,73.58
2023-02-09T23:40:05.225Z,73.23
2023-02-09T23:42:34.010Z,73.17
2023-02-09T23:45:02.387Z,74.09
2023-02-09T23:47:32.104Z,74.23
2023-02-09T23:50:00.501Z,74.64
2023-02-09T23:52:29.042Z,74.38
2023-02-09T23:54:57.699Z,74.59
2023-02-09T23:57:26.339Z,74.65
2023-02-09T23:59:54.713Z,74.70
